sensor_id;sensor_type;location;lat;lon;timestamp;temperature;humidity
66568;DHT22;53422;49.296;6.900;2022-11-27T00:02:03;6.10;99.90
66568;DHT22;53422;49.296;6.900;2022-11-27T00:04:29;6.00;99.90
66568;DHT22;53422;49.296;6.900;2022-11-27T00:06:55;6.00;99.90
66568;DHT22;53422;49.296;6.900;2022-11-27T00:09:20;5.90;99.90
66568;DHT22;53422;49.296;6.900;2022-11-27T00:11:46;6.00;99.90
66568;DHT22;53422;49.296;6.900;2022-11-27T00:14:14;6.00;99.90
66568;DHT22;53422;49.296;6.900;2022-11-27T00:16:40;6.10;99.90
66568;DHT22;53422;49.296;6.900;2022-11-27T00:19:06;6.10;99.90
66568;DHT22;53422;49.296;6.900;2022-11-27T00:21:33;6.10;99.90
66568;DHT22;53422;49.296;6.900;2022-11-27T00:24:01;6.10;99.90
66568;DHT22;53422;49.296;6.900;2022-11-27T00:26:28;6.10;99.90
66568;DHT22;53422;49.296;6.900;2022-11-27T00:28:54;6.10;99.90
66568;DHT22;53422;49.296;6.900;2022-11-27T00:31:27;6.10;99.90
66568;DHT22;53422;49.296;6.900;2022-11-27T00:33:59;6.20;99.90
66568;DHT22;53422;49.296;6.900;2022-11-27T00:36:26;6.10;99.90
66568;DHT22;53422;49.296;6.900;2022-11-27T00:38:52;6.10;99.90
66568;DHT22;53422;49.296;6.900;2022-11-27T00:41:20;6.10;99.90
66568;DHT22;53422;49.296;6.900;2022-11-27T00:43:46;6.20;99.90
66568;DHT22;53422;49.296;6.900;2022-11-27T00:46:13;6.20;99.90
66568;DHT22;53422;49.296;6.900;2022-11-27T00:48:39;6.20;99.90
66568;DHT22;53422;49.296;6.900;2022-11-27T00:51:10;6.20;99.90
66568;DHT22;53422;49.296;6.900;2022-11-27T00:53:36;6.20;99.90
66568;DHT22;53422;49.296;6.900;2022-11-27T00:56:01;6.20;99.90
66568;DHT22;53422;49.296;6.900;2022-11-27T00:58:27;6.20;99.90
66568;DHT22;53422;49.296;6.900;2022-11-27T01:00:59;6.20;99.90
66568;DHT22;53422;49.296;6.900;2022-11-27T01:03:26;6.20;99.90
66568;DHT22;53422;49.296;6.900;2022-11-27T01:05:52;6.20;99.90
66568;DHT22;53422;49.296;6.900;2022-11-27T01:08:18;6.30;99.90
66568;DHT22;53422;49.296;6.900;2022-11-27T01:10:52;6.20;99.90
66568;DHT22;53422;49.296;6.900;2022-11-27T01:13:18;6.30;99.90
66568;DHT22;53422;49.296;6.900;2022-11-27T01:15:44;6.30;99.90
66568;DHT22;53422;49.296;6.900;2022-11-27T01:18:10;6.30;99.90
66568;DHT22;53422;49.296;6.900;2022-11-27T01:20:39;6.30;99.90
66568;DHT22;53422;49.296;6.900;2022-11-27T01:23:06;6.30;99.90
66568;DHT22;53422;49.296;6.900;2022-11-27T01:25:33;6.30;99.90
66568;DHT22;53422;49.296;6.900;2022-11-27T01:27:59;6.30;99.90
66568;DHT22;53422;49.296;6.900;2022-11-27T01:30:25;6.30;99.90
66568;DHT22;53422;49.296;6.900;2022-11-27T01:32:51;6.30;99.90
66568;DHT22;53422;49.296;6.900;2022-11-27T01:35:16;6.30;99.90
66568;DHT22;53422;49.296;6.900;2022-11-27T01:37:42;6.30;99.90
66568;DHT22;53422;49.296;6.900;2022-11-27T01:40:08;6.30;99.90
66568;DHT22;53422;49.296;6.900;2022-11-27T01:42:34;6.30;99.90
66568;DHT22;53422;49.296;6.900;2022-11-27T01:44:59;6.30;99.90
66568;DHT22;53422;49.296;6.900;2022-11-27T01:47:38;6.30;99.90
66568;DHT22;53422;49.296;6.900;2022-11-27T01:50:17;6.30;99.90
66568;DHT22;53422;49.296;6.900;2022-11-27T01:52:47;6.30;99.90
66568;DHT22;53422;49.296;6.900;2022-11-27T01:55:36;6.40;99.90
66568;DHT22;53422;49.296;6.900;2022-11-27T01:58:09;6.30;99.90
66568;DHT22;53422;49.296;6.900;2022-11-27T02:00:35;6.40;99.90
66568;DHT22;53422;49.296;6.900;2022-11-27T02:03:01;6.30;99.90
66568;DHT22;53422;49.296;6.900;2022-11-27T02:05:27;6.30;99.90
66568;DHT22;53422;49.296;6.900;2022-11-27T02:07:55;6.40;99.90
66568;DHT22;53422;49.296;6.900;2022-11-27T02:13:21;6.30;99.90
66568;DHT22;53422;49.296;6.900;2022-11-27T02:29:33;6.40;99.90
66568;DHT22;53422;49.296;6.900;2022-11-27T02:35:19;6.30;99.90
66568;DHT22;53422;49.296;6.900;2022-11-27T02:38:21;6.40;99.90
66568;DHT22;53422;49.296;6.900;2022-11-27T02:40:41;6.30;99.90
66568;DHT22;53422;49.296;6.900;2022-11-27T02:43:14;6.30;99.90
66568;DHT22;53422;49.296;6.900;2022-11-27T02:45:43;6.40;99.90
66568;DHT22;53422;49.296;6.900;2022-11-27T02:48:12;6.40;99.90
66568;DHT22;53422;49.296;6.900;2022-11-27T02:50:40;6.40;99.90
66568;DHT22;53422;49.296;6.900;2022-11-27T02:53:12;6.40;99.90
66568;DHT22;53422;49.296;6.900;2022-11-27T02:55:41;6.40;99.90
66568;DHT22;53422;49.296;6.900;2022-11-27T02:58:12;6.40;99.90
66568;DHT22;53422;49.296;6.900;2022-11-27T03:00:40;6.40;99.90
66568;DHT22;53422;49.296;6.900;2022-11-27T03:03:08;6.40;99.90
66568;DHT22;53422;49.296;6.900;2022-11-27T03:05:39;6.40;99.90
66568;DHT22;53422;49.296;6.900;2022-11-27T03:08:07;6.40;99.90
66568;DHT22;53422;49.296;6.900;2022-11-27T03:13:19;6.40;99.90
66568;DHT22;53422;49.296;6.900;2022-11-27T03:21:15;6.40;99.90
66568;DHT22;53422;49.296;6.900;2022-11-27T03:23:44;6.40;99.90
66568;DHT22;53422;49.296;6.900;2022-11-27T03:26:09;6.40;99.90
66568;DHT22;53422;49.296;6.900;2022-11-27T03:28:35;6.40;99.90
66568;DHT22;53422;49.296;6.900;2022-11-27T03:31:01;6.40;99.90
66568;DHT22;53422;49.296;6.900;2022-11-27T03:33:27;6.40;99.90
66568;DHT22;53422;49.296;6.900;2022-11-27T03:35:52;6.40;99.90
66568;DHT22;53422;49.296;6.900;2022-11-27T03:38:18;6.40;99.90
66568;DHT22;53422;49.296;6.900;2022-11-27T03:40:56;6.40;99.90
66568;DHT22;53422;49.296;6.900;2022-11-27T03:43:26;6.40;99.90
66568;DHT22;53422;49.296;6.900;2022-11-27T03:46:08;6.40;99.90
66568;DHT22;53422;49.296;6.900;2022-11-27T03:49:16;6.40;99.90
66568;DHT22;53422;49.296;6.900;2022-11-27T03:51:51;6.40;99.90
66568;DHT22;53422;49.296;6.900;2022-11-27T03:54:45;6.40;99.90
66568;DHT22;53422;49.296;6.900;2022-11-27T03:57:19;6.40;99.90
66568;DHT22;53422;49.296;6.900;2022-11-27T03:59:48;6.40;99.90
66568;DHT22;53422;49.296;6.900;2022-11-27T04:02:14;6.40;99.90
66568;DHT22;53422;49.296;6.900;2022-11-27T04:04:42;6.40;99.90
66568;DHT22;53422;49.296;6.900;2022-11-27T04:07:15;6.40;99.90
66568;DHT22;53422;49.296;6.900;2022-11-27T04:09:41;6.40;99.90
66568;DHT22;53422;49.296;6.900;2022-11-27T04:12:07;6.40;99.90
66568;DHT22;53422;49.296;6.900;2022-11-27T04:14:32;6.40;99.90
66568;DHT22;53422;49.296;6.900;2022-11-27T04:16:58;6.40;99.90
66568;DHT22;53422;49.296;6.900;2022-11-27T04:19:23;6.40;99.90
66568;DHT22;53422;49.296;6.900;2022-11-27T04:21:49;6.40;99.90
66568;DHT22;53422;49.296;6.900;2022-11-27T04:24:15;6.40;99.90
66568;DHT22;53422;49.296;6.900;2022-11-27T04:26:40;6.40;99.90
66568;DHT22;53422;49.296;6.900;2022-11-27T04:29:06;6.40;99.90
66568;DHT22;53422;49.296;6.900;2022-11-27T04:31:31;6.40;99.90
66568;DHT22;53422;49.296;6.900;2022-11-27T04:33:57;6.40;99.90
66568;DHT22;53422;49.296;6.900;2022-11-27T04:36:22;6.40;99.90
66568;DHT22;53422;49.296;6.900;2022-11-27T04:38:48;6.40;99.90
66568;DHT22;53422;49.296;6.900;2022-11-27T04:41:14;6.50;99.90
66568;DHT22;53422;49.296;6.900;2022-11-27T04:43:39;6.40;99.90
66568;DHT22;53422;49.296;6.900;2022-11-27T04:46:05;6.40;99.90
66568;DHT22;53422;49.296;6.900;2022-11-27T04:48:30;6.40;99.90
66568;DHT22;53422;49.296;6.900;2022-11-27T04:50:56;6.40;99.90
66568;DHT22;53422;49.296;6.900;2022-11-27T04:53:22;6.40;99.90
66568;DHT22;53422;49.296;6.900;2022-11-27T04:55:49;6.40;99.90
66568;DHT22;53422;49.296;6.900;2022-11-27T04:58:15;6.40;99.90
66568;DHT22;53422;49.296;6.900;2022-11-27T05:00:40;6.40;99.90
66568;DHT22;53422;49.296;6.900;2022-11-27T05:03:06;6.40;99.90
66568;DHT22;53422;49.296;6.900;2022-11-27T05:05:32;6.40;99.90
66568;DHT22;53422;49.296;6.900;2022-11-27T05:07:57;6.40;99.90
66568;DHT22;53422;49.296;6.900;2022-11-27T05:10:23;6.40;99.90
66568;DHT22;53422;49.296;6.900;2022-11-27T05:12:49;6.40;99.90
66568;DHT22;53422;49.296;6.900;2022-11-27T05:15:14;6.40;99.90
66568;DHT22;53422;49.296;6.900;2022-11-27T05:17:40;6.40;99.90
66568;DHT22;53422;49.296;6.900;2022-11-27T05:20:06;6.40;99.90
66568;DHT22;53422;49.296;6.900;2022-11-27T05:22:32;6.30;99.90
66568;DHT22;53422;49.296;6.900;2022-11-27T05:24:57;6.40;99.90
66568;DHT22;53422;49.296;6.900;2022-11-27T05:27:23;6.40;99.90
66568;DHT22;53422;49.296;6.900;2022-11-27T05:29:48;6.40;99.90
66568;DHT22;53422;49.296;6.900;2022-11-27T05:32:14;6.40;99.90
66568;DHT22;53422;49.296;6.900;2022-11-27T05:34:40;6.30;99.90
66568;DHT22;53422;49.296;6.900;2022-11-27T05:37:08;6.40;99.90
66568;DHT22;53422;49.296;6.900;2022-11-27T05:39:34;6.40;99.90
66568;DHT22;53422;49.296;6.900;2022-11-27T05:42:00;6.40;99.90
66568;DHT22;53422;49.296;6.900;2022-11-27T05:44:25;6.40;99.90
66568;DHT22;53422;49.296;6.900;2022-11-27T05:46:51;6.40;99.90
66568;DHT22;53422;49.296;6.900;2022-11-27T05:49:16;6.40;99.90
66568;DHT22;53422;49.296;6.900;2022-11-27T05:51:43;6.40;99.90
66568;DHT22;53422;49.296;6.900;2022-11-27T05:54:08;6.40;99.90
66568;DHT22;53422;49.296;6.900;2022-11-27T05:56:34;6.40;99.90
66568;DHT22;53422;49.296;6.900;2022-11-27T05:59:00;6.40;99.90
66568;DHT22;53422;49.296;6.900;2022-11-27T06:01:26;6.40;99.90
66568;DHT22;53422;49.296;6.900;2022-11-27T06:03:51;6.40;99.90
66568;DHT22;53422;49.296;6.900;2022-11-27T06:06:19;6.30;99.90
66568;DHT22;53422;49.296;6.900;2022-11-27T06:08:45;6.30;99.90
66568;DHT22;53422;49.296;6.900;2022-11-27T06:11:16;6.30;99.90
66568;DHT22;53422;49.296;6.900;2022-11-27T06:13:44;6.30;99.90
66568;DHT22;53422;49.296;6.900;2022-11-27T06:16:28;6.30;99.90
66568;DHT22;53422;49.296;6.900;2022-11-27T06:18:54;6.30;99.90
66568;DHT22;53422;49.296;6.900;2022-11-27T06:21:21;6.30;99.90
66568;DHT22;53422;49.296;6.900;2022-11-27T06:23:47;6.30;99.90
66568;DHT22;53422;49.296;6.900;2022-11-27T06:28:39;6.30;99.90
66568;DHT22;53422;49.296;6.900;2022-11-27T06:31:09;6.30;99.90
66568;DHT22;53422;49.296;6.900;2022-11-27T06:33:35;6.30;99.90
66568;DHT22;53422;49.296;6.900;2022-11-27T06:36:02;6.30;99.90
66568;DHT22;53422;49.296;6.900;2022-11-27T06:38:29;6.30;99.90
66568;DHT22;53422;49.296;6.900;2022-11-27T06:41:01;6.30;99.90
66568;DHT22;53422;49.296;6.900;2022-11-27T06:43:27;6.30;99.90
66568;DHT22;53422;49.296;6.900;2022-11-27T06:45:56;6.30;99.90
66568;DHT22;53422;49.296;6.900;2022-11-27T06:48:22;6.30;99.90
66568;DHT22;53422;49.296;6.900;2022-11-27T06:50:48;6.30;99.90
66568;DHT22;53422;49.296;6.900;2022-11-27T06:53:14;6.30;99.90
66568;DHT22;53422;49.296;6.900;2022-11-27T06:55:39;6.30;99.90
66568;DHT22;53422;49.296;6.900;2022-11-27T06:58:05;6.30;99.90
66568;DHT22;53422;49.296;6.900;2022-11-27T07:00:30;6.30;99.90
66568;DHT22;53422;49.296;6.900;2022-11-27T07:03:03;6.20;99.90
66568;DHT22;53422;49.296;6.900;2022-11-27T07:05:28;6.20;99.90
66568;DHT22;53422;49.296;6.900;2022-11-27T07:07:55;6.20;99.90
66568;DHT22;53422;49.296;6.900;2022-11-27T07:10:20;6.20;99.90
66568;DHT22;53422;49.296;6.900;2022-11-27T07:12:46;6.20;99.90
66568;DHT22;53422;49.296;6.900;2022-11-27T07:15:12;6.20;99.90
66568;DHT22;53422;49.296;6.900;2022-11-27T07:17:37;6.20;99.90
66568;DHT22;53422;49.296;6.900;2022-11-27T07:20:04;6.20;99.90
66568;DHT22;53422;49.296;6.900;2022-11-27T07:22:31;6.20;99.90
66568;DHT22;53422;49.296;6.900;2022-11-27T07:24:57;6.30;99.90
66568;DHT22;53422;49.296;6.900;2022-11-27T07:27:22;6.30;99.90
66568;DHT22;53422;49.296;6.900;2022-11-27T07:29:48;6.30;99.90
66568;DHT22;53422;49.296;6.900;2022-11-27T07:32:14;6.30;99.90
66568;DHT22;53422;49.296;6.900;2022-11-27T07:34:39;6.20;99.90
66568;DHT22;53422;49.296;6.900;2022-11-27T07:37:05;6.20;99.90
66568;DHT22;53422;49.296;6.900;2022-11-27T07:39:30;6.20;99.90
66568;DHT22;53422;49.296;6.900;2022-11-27T07:41:56;6.30;99.90
66568;DHT22;53422;49.296;6.900;2022-11-27T07:44:22;6.30;99.90
66568;DHT22;53422;49.296;6.900;2022-11-27T07:46:47;6.30;99.90
66568;DHT22;53422;49.296;6.900;2022-11-27T07:49:13;6.30;99.90
66568;DHT22;53422;49.296;6.900;2022-11-27T07:51:38;6.30;99.90
66568;DHT22;53422;49.296;6.900;2022-11-27T07:54:04;6.30;99.90
66568;DHT22;53422;49.296;6.900;2022-11-27T07:56:30;6.30;99.90
66568;DHT22;53422;49.296;6.900;2022-11-27T07:58:56;6.30;99.90
66568;DHT22;53422;49.296;6.900;2022-11-27T08:01:22;6.20;99.90
66568;DHT22;53422;49.296;6.900;2022-11-27T08:03:48;6.30;99.90
66568;DHT22;53422;49.296;6.900;2022-11-27T08:06:22;6.30;99.90
66568;DHT22;53422;49.296;6.900;2022-11-27T08:08:49;6.30;99.90
66568;DHT22;53422;49.296;6.900;2022-11-27T08:11:26;6.30;99.90
66568;DHT22;53422;49.296;6.900;2022-11-27T08:14:02;6.30;99.90
66568;DHT22;53422;49.296;6.900;2022-11-27T08:16:29;6.40;99.90
66568;DHT22;53422;49.296;6.900;2022-11-27T08:18:55;6.30;99.90
66568;DHT22;53422;49.296;6.900;2022-11-27T08:21:21;6.30;99.90
66568;DHT22;53422;49.296;6.900;2022-11-27T08:23:47;6.30;99.90
66568;DHT22;53422;49.296;6.900;2022-11-27T08:26:13;6.40;99.90
66568;DHT22;53422;49.296;6.900;2022-11-27T08:28:40;6.40;99.90
66568;DHT22;53422;49.296;6.900;2022-11-27T08:31:07;6.20;99.90
66568;DHT22;53422;49.296;6.900;2022-11-27T08:33:34;6.30;99.90
66568;DHT22;53422;49.296;6.900;2022-11-27T08:36:01;6.30;99.90
66568;DHT22;53422;49.296;6.900;2022-11-27T08:38:26;6.40;99.90
66568;DHT22;53422;49.296;6.900;2022-11-27T08:41:01;6.40;99.90
66568;DHT22;53422;49.296;6.900;2022-11-27T08:43:27;6.40;99.90
66568;DHT22;53422;49.296;6.900;2022-11-27T08:45:53;6.40;99.90
66568;DHT22;53422;49.296;6.900;2022-11-27T08:48:19;6.40;99.90
66568;DHT22;53422;49.296;6.900;2022-11-27T08:50:45;6.40;99.90
66568;DHT22;53422;49.296;6.900;2022-11-27T08:53:11;6.30;99.90
66568;DHT22;53422;49.296;6.900;2022-11-27T08:55:37;6.40;99.90
66568;DHT22;53422;49.296;6.900;2022-11-27T08:58:03;6.40;99.90
66568;DHT22;53422;49.296;6.900;2022-11-27T09:00:30;6.40;99.90
66568;DHT22;53422;49.296;6.900;2022-11-27T09:02:57;6.50;99.90
66568;DHT22;53422;49.296;6.900;2022-11-27T09:05:23;6.50;99.90
66568;DHT22;53422;49.296;6.900;2022-11-27T09:07:49;6.50;99.90
66568;DHT22;53422;49.296;6.900;2022-11-27T09:10:15;6.50;99.90
66568;DHT22;53422;49.296;6.900;2022-11-27T09:12:41;6.50;99.90
66568;DHT22;53422;49.296;6.900;2022-11-27T09:15:12;6.50;99.90
66568;DHT22;53422;49.296;6.900;2022-11-27T09:17:37;6.60;99.90
66568;DHT22;53422;49.296;6.900;2022-11-27T09:20:05;6.60;99.90
66568;DHT22;53422;49.296;6.900;2022-11-27T09:22:32;6.60;99.90
66568;DHT22;53422;49.296;6.900;2022-11-27T09:24:58;6.50;99.90
66568;DHT22;53422;49.296;6.900;2022-11-27T09:27:24;6.60;99.90
66568;DHT22;53422;49.296;6.900;2022-11-27T09:29:49;6.60;99.90
66568;DHT22;53422;49.296;6.900;2022-11-27T09:32:15;6.60;99.90
66568;DHT22;53422;49.296;6.900;2022-11-27T09:34:40;6.60;99.90
66568;DHT22;53422;49.296;6.900;2022-11-27T09:37:06;6.60;99.90
66568;DHT22;53422;49.296;6.900;2022-11-27T09:39:33;6.60;99.90
66568;DHT22;53422;49.296;6.900;2022-11-27T09:42:00;6.60;99.90
66568;DHT22;53422;49.296;6.900;2022-11-27T09:44:46;6.60;99.90
66568;DHT22;53422;49.296;6.900;2022-11-27T09:47:34;6.60;99.90
66568;DHT22;53422;49.296;6.900;2022-11-27T09:50:09;6.70;99.90
66568;DHT22;53422;49.296;6.900;2022-11-27T09:52:40;6.70;99.90
66568;DHT22;53422;49.296;6.900;2022-11-27T09:55:17;6.70;99.90
66568;DHT22;53422;49.296;6.900;2022-11-27T09:57:52;6.70;99.90
66568;DHT22;53422;49.296;6.900;2022-11-27T10:00:19;6.70;99.90
66568;DHT22;53422;49.296;6.900;2022-11-27T10:02:45;6.70;99.90
66568;DHT22;53422;49.296;6.900;2022-11-27T10:05:22;6.70;99.90
66568;DHT22;53422;49.296;6.900;2022-11-27T10:08:03;6.70;99.90
66568;DHT22;53422;49.296;6.900;2022-11-27T10:11:17;6.80;99.90
66568;DHT22;53422;49.296;6.900;2022-11-27T10:19:30;6.80;99.90
66568;DHT22;53422;49.296;6.900;2022-11-27T10:24:40;6.80;99.90
66568;DHT22;53422;49.296;6.900;2022-11-27T10:27:21;6.80;99.90
66568;DHT22;53422;49.296;6.900;2022-11-27T10:29:54;6.90;99.90
66568;DHT22;53422;49.296;6.900;2022-11-27T10:32:22;6.90;99.90
66568;DHT22;53422;49.296;6.900;2022-11-27T10:37:25;6.90;99.90
66568;DHT22;53422;49.296;6.900;2022-11-27T10:39:57;7.00;99.90
66568;DHT22;53422;49.296;6.900;2022-11-27T10:45:35;7.10;99.90
66568;DHT22;53422;49.296;6.900;2022-11-27T10:48:02;7.10;99.90
66568;DHT22;53422;49.296;6.900;2022-11-27T10:50:28;7.10;99.90
66568;DHT22;53422;49.296;6.900;2022-11-27T10:53:00;7.10;99.90
66568;DHT22;53422;49.296;6.900;2022-11-27T10:58:31;7.10;99.90
66568;DHT22;53422;49.296;6.900;2022-11-27T11:01:06;7.10;99.90
66568;DHT22;53422;49.296;6.900;2022-11-27T11:03:32;7.20;99.90
66568;DHT22;53422;49.296;6.900;2022-11-27T11:06:00;7.20;99.90
66568;DHT22;53422;49.296;6.900;2022-11-27T11:08:27;7.20;99.90
66568;DHT22;53422;49.296;6.900;2022-11-27T11:11:05;7.20;99.90
66568;DHT22;53422;49.296;6.900;2022-11-27T11:13:51;7.20;99.90
66568;DHT22;53422;49.296;6.900;2022-11-27T11:16:23;7.30;99.90
66568;DHT22;53422;49.296;6.900;2022-11-27T11:18:53;7.30;99.90
66568;DHT22;53422;49.296;6.900;2022-11-27T11:21:38;7.30;99.90
66568;DHT22;53422;49.296;6.900;2022-11-27T11:24:15;7.40;99.90
66568;DHT22;53422;49.296;6.900;2022-11-27T11:26:46;7.30;99.90
66568;DHT22;53422;49.296;6.900;2022-11-27T11:29:35;7.30;99.90
66568;DHT22;53422;49.296;6.900;2022-11-27T11:34:52;7.40;99.90
66568;DHT22;53422;49.296;6.900;2022-11-27T11:39:51;7.50;99.90
66568;DHT22;53422;49.296;6.900;2022-11-27T11:42:26;7.50;99.90
66568;DHT22;53422;49.296;6.900;2022-11-27T11:45:43;7.50;99.90
66568;DHT22;53422;49.296;6.900;2022-11-27T11:47:46;7.50;99.90
66568;DHT22;53422;49.296;6.900;2022-11-27T12:04:30;7.70;99.90
66568;DHT22;53422;49.296;6.900;2022-11-27T12:09:29;7.70;99.90
66568;DHT22;53422;49.296;6.900;2022-11-27T12:17:16;7.70;99.90
66568;DHT22;53422;49.296;6.900;2022-11-27T12:30:22;7.80;99.90
66568;DHT22;53422;49.296;6.900;2022-11-27T12:35:50;7.80;99.90
66568;DHT22;53422;49.296;6.900;2022-11-27T12:41:37;7.90;99.90
66568;DHT22;53422;49.296;6.900;2022-11-27T12:44:22;7.80;99.90
66568;DHT22;53422;49.296;6.900;2022-11-27T12:47:12;7.90;99.90
66568;DHT22;53422;49.296;6.900;2022-11-27T12:49:49;7.90;99.90
66568;DHT22;53422;49.296;6.900;2022-11-27T12:52:44;7.90;99.90
66568;DHT22;53422;49.296;6.900;2022-11-27T12:55:21;7.90;99.90
66568;DHT22;53422;49.296;6.900;2022-11-27T12:57:51;7.90;99.90
66568;DHT22;53422;49.296;6.900;2022-11-27T13:00:19;7.90;99.90
66568;DHT22;53422;49.296;6.900;2022-11-27T13:03:12;8.00;99.90
66568;DHT22;53422;49.296;6.900;2022-11-27T13:05:54;8.00;99.90
66568;DHT22;53422;49.296;6.900;2022-11-27T13:08:49;8.00;99.90
66568;DHT22;53422;49.296;6.900;2022-11-27T13:11:22;8.00;99.90
66568;DHT22;53422;49.296;6.900;2022-11-27T13:13:58;8.00;99.90
66568;DHT22;53422;49.296;6.900;2022-11-27T13:16:35;8.00;99.90
66568;DHT22;53422;49.296;6.900;2022-11-27T13:19:23;8.10;99.90
66568;DHT22;53422;49.296;6.900;2022-11-27T13:21:52;8.10;99.90
66568;DHT22;53422;49.296;6.900;2022-11-27T13:24:19;8.10;99.90
66568;DHT22;53422;49.296;6.900;2022-11-27T13:29:58;8.10;99.90
66568;DHT22;53422;49.296;6.900;2022-11-27T13:32:30;8.20;99.90
66568;DHT22;53422;49.296;6.900;2022-11-27T13:35:00;8.10;99.90
66568;DHT22;53422;49.296;6.900;2022-11-27T13:40:30;8.20;99.90
66568;DHT22;53422;49.296;6.900;2022-11-27T13:43:02;8.20;99.90
66568;DHT22;53422;49.296;6.900;2022-11-27T13:45:32;8.10;99.90
66568;DHT22;53422;49.296;6.900;2022-11-27T13:48:01;8.10;99.90
66568;DHT22;53422;49.296;6.900;2022-11-27T13:50:29;8.10;99.90
66568;DHT22;53422;49.296;6.900;2022-11-27T13:52:59;8.10;99.90
66568;DHT22;53422;49.296;6.900;2022-11-27T13:55:31;8.10;99.90
66568;DHT22;53422;49.296;6.900;2022-11-27T13:57:59;8.10;99.90
66568;DHT22;53422;49.296;6.900;2022-11-27T14:00:38;8.10;99.90
66568;DHT22;53422;49.296;6.900;2022-11-27T14:03:05;8.10;99.90
66568;DHT22;53422;49.296;6.900;2022-11-27T14:05:37;8.10;99.90
66568;DHT22;53422;49.296;6.900;2022-11-27T14:08:19;8.20;99.90
66568;DHT22;53422;49.296;6.900;2022-11-27T14:11:07;8.10;99.90
66568;DHT22;53422;49.296;6.900;2022-11-27T14:13:45;8.10;99.90
66568;DHT22;53422;49.296;6.900;2022-11-27T14:16:31;8.10;99.90
66568;DHT22;53422;49.296;6.900;2022-11-27T14:19:00;8.10;99.90
66568;DHT22;53422;49.296;6.900;2022-11-27T14:24:34;8.10;99.90
66568;DHT22;53422;49.296;6.900;2022-11-27T14:27:13;8.10;99.90
66568;DHT22;53422;49.296;6.900;2022-11-27T14:29:40;8.10;99.90
66568;DHT22;53422;49.296;6.900;2022-11-27T14:32:12;8.10;99.90
66568;DHT22;53422;49.296;6.900;2022-11-27T14:34:38;8.10;99.90
66568;DHT22;53422;49.296;6.900;2022-11-27T14:37:04;8.10;99.90
66568;DHT22;53422;49.296;6.900;2022-11-27T14:39:31;8.10;99.90
66568;DHT22;53422;49.296;6.900;2022-11-27T14:42:06;8.00;99.90
66568;DHT22;53422;49.296;6.900;2022-11-27T14:44:32;8.00;99.90
66568;DHT22;53422;49.296;6.900;2022-11-27T14:47:02;8.00;99.90
66568;DHT22;53422;49.296;6.900;2022-11-27T14:49:29;8.10;99.90
66568;DHT22;53422;49.296;6.900;2022-11-27T14:52:02;8.00;99.90
66568;DHT22;53422;49.296;6.900;2022-11-27T14:54:31;8.00;99.90
66568;DHT22;53422;49.296;6.900;2022-11-27T14:56:59;8.00;99.90
66568;DHT22;53422;49.296;6.900;2022-11-27T14:59:25;8.00;99.90
66568;DHT22;53422;49.296;6.900;2022-11-27T15:04:35;8.00;99.90
66568;DHT22;53422;49.296;6.900;2022-11-27T15:07:05;8.00;99.90
66568;DHT22;53422;49.296;6.900;2022-11-27T15:09:35;8.00;99.90
66568;DHT22;53422;49.296;6.900;2022-11-27T15:12:15;8.00;99.90
66568;DHT22;53422;49.296;6.900;2022-11-27T15:15:12;8.00;99.90
66568;DHT22;53422;49.296;6.900;2022-11-27T15:17:44;8.00;99.90
66568;DHT22;53422;49.296;6.900;2022-11-27T15:20:12;7.90;99.90
66568;DHT22;53422;49.296;6.900;2022-11-27T15:22:47;7.90;99.90
66568;DHT22;53422;49.296;6.900;2022-11-27T15:25:34;7.90;99.90
66568;DHT22;53422;49.296;6.900;2022-11-27T15:28:00;7.90;99.90
66568;DHT22;53422;49.296;6.900;2022-11-27T15:30:26;7.80;99.90
66568;DHT22;53422;49.296;6.900;2022-11-27T15:32:52;7.80;99.90
66568;DHT22;53422;49.296;6.900;2022-11-27T15:37:55;7.80;99.90
66568;DHT22;53422;49.296;6.900;2022-11-27T15:40:32;7.80;99.90
66568;DHT22;53422;49.296;6.900;2022-11-27T15:42:58;7.80;99.90
66568;DHT22;53422;49.296;6.900;2022-11-27T15:45:29;7.80;99.90
66568;DHT22;53422;49.296;6.900;2022-11-27T15:47:57;7.70;99.90
66568;DHT22;53422;49.296;6.900;2022-11-27T15:50:23;7.70;99.90
66568;DHT22;53422;49.296;6.900;2022-11-27T15:52:49;7.70;99.90
66568;DHT22;53422;49.296;6.900;2022-11-27T15:55:15;7.70;99.90
66568;DHT22;53422;49.296;6.900;2022-11-27T15:57:41;7.70;99.90
66568;DHT22;53422;49.296;6.900;2022-11-27T16:00:08;7.70;99.90
66568;DHT22;53422;49.296;6.900;2022-11-27T16:02:37;7.70;99.90
66568;DHT22;53422;49.296;6.900;2022-11-27T16:05:07;7.70;99.90
66568;DHT22;53422;49.296;6.900;2022-11-27T16:07:33;7.70;99.90
66568;DHT22;53422;49.296;6.900;2022-11-27T16:09:59;7.70;99.90
66568;DHT22;53422;49.296;6.900;2022-11-27T16:12:25;7.60;99.90
66568;DHT22;53422;49.296;6.900;2022-11-27T16:14:50;7.60;99.90
66568;DHT22;53422;49.296;6.900;2022-11-27T16:17:16;7.60;99.90
66568;DHT22;53422;49.296;6.900;2022-11-27T16:19:42;7.60;99.90
66568;DHT22;53422;49.296;6.900;2022-11-27T16:22:07;7.60;99.90
66568;DHT22;53422;49.296;6.900;2022-11-27T16:24:33;7.60;99.90
66568;DHT22;53422;49.296;6.900;2022-11-27T16:26:59;7.60;99.90
66568;DHT22;53422;49.296;6.900;2022-11-27T16:29:24;7.60;99.90
66568;DHT22;53422;49.296;6.900;2022-11-27T16:31:50;7.60;99.90
66568;DHT22;53422;49.296;6.900;2022-11-27T16:34:16;7.50;99.90
66568;DHT22;53422;49.296;6.900;2022-11-27T16:36:42;7.50;99.90
66568;DHT22;53422;49.296;6.900;2022-11-27T16:39:09;7.50;99.90
66568;DHT22;53422;49.296;6.900;2022-11-27T16:41:34;7.50;99.90
66568;DHT22;53422;49.296;6.900;2022-11-27T16:44:00;7.50;99.90
66568;DHT22;53422;49.296;6.900;2022-11-27T16:46:28;7.50;99.90
66568;DHT22;53422;49.296;6.900;2022-11-27T16:48:56;7.50;99.90
66568;DHT22;53422;49.296;6.900;2022-11-27T16:51:24;7.50;99.90
66568;DHT22;53422;49.296;6.900;2022-11-27T16:53:52;7.50;99.90
66568;DHT22;53422;49.296;6.900;2022-11-27T16:56:20;7.50;99.90
66568;DHT22;53422;49.296;6.900;2022-11-27T16:58:46;7.40;99.90
66568;DHT22;53422;49.296;6.900;2022-11-27T17:01:22;7.40;99.90
66568;DHT22;53422;49.296;6.900;2022-11-27T17:03:48;7.40;99.90
66568;DHT22;53422;49.296;6.900;2022-11-27T17:06:35;7.40;99.90
66568;DHT22;53422;49.296;6.900;2022-11-27T17:09:03;7.40;99.90
66568;DHT22;53422;49.296;6.900;2022-11-27T17:11:31;7.40;99.90
66568;DHT22;53422;49.296;6.900;2022-11-27T17:13:59;7.40;99.90
66568;DHT22;53422;49.296;6.900;2022-11-27T17:16:25;7.40;99.90
66568;DHT22;53422;49.296;6.900;2022-11-27T17:18:51;7.40;99.90
66568;DHT22;53422;49.296;6.900;2022-11-27T17:21:23;7.40;99.90
66568;DHT22;53422;49.296;6.900;2022-11-27T17:23:52;7.40;99.90
66568;DHT22;53422;49.296;6.900;2022-11-27T17:26:20;7.40;99.90
66568;DHT22;53422;49.296;6.900;2022-11-27T17:28:47;7.40;99.90
66568;DHT22;53422;49.296;6.900;2022-11-27T17:31:16;7.40;99.90
66568;DHT22;53422;49.296;6.900;2022-11-27T17:33:42;7.40;99.90
66568;DHT22;53422;49.296;6.900;2022-11-27T17:36:08;7.40;99.90
66568;DHT22;53422;49.296;6.900;2022-11-27T17:38:34;7.40;99.90
66568;DHT22;53422;49.296;6.900;2022-11-27T17:41:04;7.40;99.90
66568;DHT22;53422;49.296;6.900;2022-11-27T17:43:31;7.30;99.90
66568;DHT22;53422;49.296;6.900;2022-11-27T17:45:57;7.30;99.90